createdAt,value
2023-02-27T00:01:29.309Z,-2.13
2023-02-27T00:03:55.747Z,-2.11
2023-02-27T00:06:22.096Z,-2.15
2023-02-27T00:08:48.462Z,-2.29
2023-02-27T00:11:14.813Z,-2.17
2023-02-27T00:13:41.107Z,-2.14
2023-02-27T00:16:07.515Z,-2.13
2023-02-27T00:18:33.860Z,-2.21
2023-02-27T00:21:00.180Z,-2.29
2023-02-27T00:23:27.711Z,-2.37
2023-02-27T00:25:54.949Z,-2.47
2023-02-27T00:28:21.253Z,-2.53
2023-02-27T00:30:47.578Z,-2.50
2023-02-27T00:33:13.937Z,-2.59
2023-02-27T00:35:40.254Z,-2.58
2023-02-27T00:38:06.670Z,-2.74
2023-02-27T00:40:35.846Z,-2.79
2023-02-27T00:43:02.159Z,-2.81
2023-02-27T00:45:28.552Z,-2.81
2023-02-27T00:47:54.871Z,-2.92
2023-02-27T00:50:21.173Z,-2.86
2023-02-27T00:52:47.612Z,-2.82
2023-02-27T00:55:13.941Z,-2.77
2023-02-27T00:57:40.644Z,-2.75
2023-02-27T01:00:07.005Z,-2.77
2023-02-27T01:02:33.383Z,-2.68
2023-02-27T01:04:59.824Z,-3.04
2023-02-27T01:07:26.290Z,-2.90
2023-02-27T01:09:52.670Z,-3.01
2023-02-27T01:12:19.057Z,-2.90
2023-02-27T01:14:45.395Z,-3.36
2023-02-27T01:17:11.695Z,-3.12
2023-02-27T01:19:38.010Z,-3.11
2023-02-27T01:22:04.328Z,-3.21
2023-02-27T01:24:30.652Z,-2.93
2023-02-27T01:26:57.014Z,-3.11
2023-02-27T01:29:23.322Z,-3.17
2023-02-27T01:31:49.703Z,-3.13
2023-02-27T01:34:16.143Z,-3.01
2023-02-27T01:36:42.539Z,-3.08
2023-02-27T01:39:08.858Z,-3.12
2023-02-27T01:41:35.217Z,-3.12
2023-02-27T01:44:01.531Z,-3.17
2023-02-27T01:46:27.883Z,-3.18
2023-02-27T01:48:55.744Z,-3.16
2023-02-27T01:51:22.069Z,-3.04
2023-02-27T01:53:48.387Z,-3.04
2023-02-27T01:56:14.685Z,-3.06
2023-02-27T01:58:41.026Z,-3.04
2023-02-27T02:01:07.440Z,-3.11
2023-02-27T02:03:33.774Z,-3.10
2023-02-27T02:06:00.135Z,-3.29
2023-02-27T02:08:26.552Z,-3.22
2023-02-27T02:10:52.898Z,-3.26
2023-02-27T02:13:19.241Z,-3.24
2023-02-27T02:15:45.548Z,-3.33
2023-02-27T02:18:11.899Z,-3.30
2023-02-27T02:20:38.256Z,-3.58
2023-02-27T02:23:04.600Z,-3.61
2023-02-27T02:25:30.922Z,-3.54
2023-02-27T02:27:57.272Z,-3.52
2023-02-27T02:30:23.673Z,-3.59
2023-02-27T02:32:49.979Z,-3.66
2023-02-27T02:35:16.520Z,-3.58
2023-02-27T02:37:42.845Z,-3.59
2023-02-27T02:40:09.149Z,-3.50
2023-02-27T02:42:35.456Z,-3.46
2023-02-27T02:45:01.750Z,-3.57
2023-02-27T02:47:28.051Z,-3.40
2023-02-27T02:49:54.370Z,-3.31
2023-02-27T02:52:20.696Z,-3.30
2023-02-27T02:54:47.096Z,-3.29
2023-02-27T02:57:13.401Z,-3.27
2023-02-27T02:59:39.729Z,-3.25
2023-02-27T03:02:06.056Z,-3.09
2023-02-27T03:04:32.440Z,-3.12
2023-02-27T03:06:58.867Z,-3.10
2023-02-27T03:09:25.684Z,-3.01
2023-02-27T03:11:52.006Z,-2.87
2023-02-27T03:14:18.320Z,-2.77
2023-02-27T03:16:44.618Z,-2.72
2023-02-27T03:19:10.909Z,-2.77
2023-02-27T03:21:37.221Z,-2.71
2023-02-27T03:24:03.688Z,-2.72
2023-02-27T03:26:30.020Z,-2.74
2023-02-27T03:28:56.325Z,-2.88
2023-02-27T03:31:22.706Z,-2.86
2023-02-27T03:33:49.117Z,-2.66
2023-02-27T03:36:15.452Z,-2.63
2023-02-27T03:38:41.778Z,-2.50
2023-02-27T03:41:08.094Z,-2.41
2023-02-27T03:43:34.392Z,-2.29
2023-02-27T03:46:00.797Z,-2.46
2023-02-27T03:48:27.143Z,-2.39
2023-02-27T03:50:53.490Z,-2.41
2023-02-27T03:53:19.794Z,-2.53
2023-02-27T03:55:46.102Z,-2.51
2023-02-27T03:58:12.410Z,-2.55
2023-02-27T04:00:38.743Z,-2.61
2023-02-27T04:03:05.173Z,-2.64
2023-02-27T04:05:31.502Z,-2.52
2023-02-27T04:07:57.794Z,-2.49
2023-02-27T04:10:24.114Z,-2.37
2023-02-27T04:12:50.460Z,-2.24
2023-02-27T04:15:16.771Z,-2.25
2023-02-27T04:17:43.067Z,-2.15
2023-02-27T04:20:10.620Z,-2.26
2023-02-27T04:22:36.946Z,-2.29
2023-02-27T04:25:03.266Z,-2.33
2023-02-27T04:27:29.591Z,-2.50
2023-02-27T04:29:55.894Z,-2.52
2023-02-27T04:32:22.311Z,-2.42
2023-02-27T04:34:48.682Z,-2.28
2023-02-27T04:37:14.989Z,-2.12
2023-02-27T04:39:41.301Z,-2.16
2023-02-27T04:42:07.643Z,-2.13
2023-02-27T04:44:33.983Z,-2.17
2023-02-27T04:47:00.312Z,-2.29
2023-02-27T04:49:26.610Z,-2.30
2023-02-27T04:51:53.006Z,-2.30
2023-02-27T04:54:19.311Z,-2.22
2023-02-27T04:56:45.640Z,-2.11
2023-02-27T04:59:12.013Z,-2.10
2023-02-27T05:01:38.313Z,-2.36
2023-02-27T05:04:04.645Z,-2.33
2023-02-27T05:06:30.968Z,-2.24
2023-02-27T05:08:57.702Z,-2.18
2023-02-27T05:11:24.015Z,-2.27
2023-02-27T05:13:50.359Z,-2.24
2023-02-27T05:16:16.725Z,-2.15
2023-02-27T05:18:43.126Z,-2.49
2023-02-27T05:21:09.420Z,-2.36
2023-02-27T05:23:35.799Z,-2.22
2023-02-27T05:26:02.122Z,-2.21
2023-02-27T05:28:28.448Z,-2.15
2023-02-27T05:30:54.749Z,-2.07
2023-02-27T05:33:21.070Z,-2.02
2023-02-27T05:35:47.438Z,-1.94
2023-02-27T05:38:13.770Z,-1.93
2023-02-27T05:40:40.069Z,-1.89
2023-02-27T05:43:06.368Z,-2.04
2023-02-27T05:45:34.719Z,-2.41
2023-02-27T05:48:01.079Z,-2.36
2023-02-27T05:50:27.414Z,-2.10
2023-02-27T05:52:53.745Z,-2.02
2023-02-27T05:55:20.101Z,-1.97
2023-02-27T05:57:46.406Z,-1.93
2023-02-27T06:00:12.761Z,-1.89
2023-02-27T06:02:39.093Z,-1.82
2023-02-27T06:05:05.426Z,-1.95
2023-02-27T06:07:31.863Z,-1.89
2023-02-27T06:09:58.207Z,-1.83
2023-02-27T06:12:24.522Z,-1.83
2023-02-27T06:14:51.938Z,-2.19
2023-02-27T06:17:18.314Z,-1.91
2023-02-27T06:19:44.752Z,-1.86
2023-02-27T06:22:11.177Z,-1.73
2023-02-27T06:24:37.477Z,-1.67
2023-02-27T06:27:03.799Z,-1.53
2023-02-27T06:29:30.215Z,-1.44
2023-02-27T06:31:56.591Z,-1.33
2023-02-27T06:34:22.952Z,-1.22
2023-02-27T06:36:49.305Z,-1.18
2023-02-27T06:39:15.706Z,-1.10
2023-02-27T06:41:42.062Z,-1.32
2023-02-27T06:44:08.501Z,-1.46
2023-02-27T06:46:34.845Z,-1.35
2023-02-27T06:49:01.157Z,-1.04
2023-02-27T06:51:27.555Z,-1.33
2023-02-27T06:53:53.878Z,-1.20
2023-02-27T06:56:20.208Z,-1.34
2023-02-27T06:58:46.636Z,-1.25
2023-02-27T07:01:13.644Z,-1.27
2023-02-27T07:03:40.001Z,-1.48
2023-02-27T07:06:06.328Z,-1.18
2023-02-27T07:08:32.703Z,-1.09
2023-02-27T07:10:59.540Z,-0.87
2023-02-27T07:13:25.857Z,-1.02
2023-02-27T07:15:52.499Z,-0.92
2023-02-27T07:18:18.875Z,-0.94
2023-02-27T07:20:45.217Z,-1.02
2023-02-27T07:23:11.550Z,-0.83
2023-02-27T07:25:37.891Z,-0.92
2023-02-27T07:28:05.239Z,-0.68
2023-02-27T07:30:31.681Z,-0.71
2023-02-27T07:32:58.029Z,-0.65
2023-02-27T07:35:24.698Z,-0.57
2023-02-27T07:37:51.019Z,-0.25
2023-02-27T07:40:17.339Z,-0.30
2023-02-27T07:42:43.732Z,-0.41
2023-02-27T07:45:10.176Z,-0.48
2023-02-27T07:47:36.579Z,-0.57
2023-02-27T07:50:04.753Z,-0.19
2023-02-27T07:52:31.288Z,-0.23
2023-02-27T07:54:57.637Z,-0.39
2023-02-27T07:57:23.961Z,-0.50
2023-02-27T07:59:50.286Z,-0.43
2023-02-27T08:02:16.616Z,-0.35
2023-02-27T08:04:43.134Z,-0.12
2023-02-27T08:07:09.542Z,-0.34
2023-02-27T08:09:36.634Z,-0.14
2023-02-27T08:12:03.190Z,-0.37
2023-02-27T08:14:29.525Z,-0.22
2023-02-27T08:16:55.835Z,-0.02
2023-02-27T08:19:22.168Z,0.31
2023-02-27T08:21:48.517Z,0.45
2023-02-27T08:24:14.830Z,0.35
2023-02-27T08:26:41.156Z,0.68
2023-02-27T08:29:07.832Z,0.67
2023-02-27T08:31:34.222Z,0.45
2023-02-27T08:34:09.950Z,0.03
2023-02-27T08:36:37.003Z,0.47
2023-02-27T08:39:03.383Z,0.05
2023-02-27T08:41:29.690Z,0.04
2023-02-27T08:43:56.138Z,0.01
2023-02-27T08:46:22.454Z,0.16
2023-02-27T08:48:48.784Z,0.17
2023-02-27T08:51:15.118Z,0.00
2023-02-27T08:53:41.450Z,0.44
2023-02-27T08:56:07.796Z,0.07
2023-02-27T08:58:36.009Z,0.46
2023-02-27T09:01:02.420Z,0.35
2023-02-27T09:03:29.039Z,0.82
2023-02-27T09:05:55.470Z,0.66
2023-02-27T09:08:21.799Z,0.64
2023-02-27T09:10:48.121Z,0.43
2023-02-27T09:13:14.430Z,1.13
2023-02-27T09:15:40.767Z,1.24
2023-02-27T09:18:07.116Z,1.49
2023-02-27T09:20:33.531Z,0.93
2023-02-27T09:22:59.936Z,1.11
2023-02-27T09:25:26.358Z,0.97
2023-02-27T09:27:52.698Z,1.07
2023-02-27T09:30:19.018Z,0.51
2023-02-27T09:32:45.389Z,0.68
2023-02-27T09:35:11.729Z,0.80
2023-02-27T09:37:38.055Z,0.99
2023-02-27T09:40:07.044Z,1.06
2023-02-27T09:42:33.367Z,0.94
2023-02-27T09:44:59.682Z,1.42
2023-02-27T09:47:26.036Z,1.34
2023-02-27T09:49:52.372Z,1.34
2023-02-27T09:52:18.708Z,1.69
2023-02-27T09:54:45.075Z,1.93
2023-02-27T09:57:12.410Z,1.97
2023-02-27T09:59:38.748Z,1.98
2023-02-27T10:02:06.343Z,1.54
2023-02-27T10:04:32.757Z,1.73
2023-02-27T10:06:59.160Z,1.67
2023-02-27T10:09:25.604Z,1.42
2023-02-27T10:11:51.949Z,1.59
2023-02-27T10:14:18.993Z,1.66
2023-02-27T10:16:45.420Z,1.69
2023-02-27T10:19:11.726Z,1.70
2023-02-27T10:21:38.070Z,1.83
2023-02-27T10:24:06.751Z,2.15
2023-02-27T10:26:33.953Z,1.94
2023-02-27T10:29:00.379Z,1.88
2023-02-27T10:31:27.263Z,1.78
2023-02-27T10:33:53.837Z,1.91
2023-02-27T10:36:33.048Z,1.59
2023-02-27T10:39:00.226Z,1.64
2023-02-27T10:41:26.999Z,1.48
2023-02-27T10:43:53.498Z,1.84
2023-02-27T10:46:19.843Z,1.46
2023-02-27T10:48:46.271Z,1.15
2023-02-27T10:51:12.600Z,1.44
2023-02-27T10:53:38.910Z,1.63
2023-02-27T10:56:05.204Z,1.37
2023-02-27T10:58:34.650Z,1.68
2023-02-27T11:01:01.511Z,2.15
2023-02-27T11:03:29.226Z,2.38
2023-02-27T11:05:55.595Z,2.51
2023-02-27T11:08:21.928Z,2.38
2023-02-27T11:10:48.268Z,2.70
2023-02-27T11:13:14.559Z,2.38
2023-02-27T11:15:40.881Z,2.61
2023-02-27T11:18:07.184Z,2.50
2023-02-27T11:20:33.497Z,2.25
2023-02-27T11:22:59.850Z,1.83
2023-02-27T11:25:26.167Z,1.83
2023-02-27T11:27:52.571Z,1.96
2023-02-27T11:30:18.910Z,1.88
2023-02-27T11:32:45.264Z,2.23
2023-02-27T11:35:11.582Z,2.20
2023-02-27T11:37:39.588Z,2.14
2023-02-27T11:40:07.186Z,2.19
2023-02-27T11:42:33.630Z,2.51
2023-02-27T11:45:00.027Z,2.57
2023-02-27T11:47:26.734Z,2.31
2023-02-27T11:49:53.079Z,2.62
2023-02-27T11:52:19.409Z,2.59
2023-02-27T11:54:45.721Z,2.36
2023-02-27T11:57:13.071Z,2.73
2023-02-27T11:59:39.441Z,2.92
2023-02-27T12:02:05.885Z,2.83
2023-02-27T12:04:32.196Z,3.27
2023-02-27T12:06:58.537Z,3.62
2023-02-27T12:09:24.861Z,3.80
2023-02-27T12:11:51.164Z,3.86
2023-02-27T12:14:17.488Z,3.58
2023-02-27T12:16:43.863Z,3.67
2023-02-27T12:19:10.212Z,2.98
2023-02-27T12:21:36.512Z,3.07
2023-02-27T12:24:02.838Z,3.20
2023-02-27T12:26:29.516Z,2.84
2023-02-27T12:28:56.268Z,2.76
2023-02-27T12:31:22.603Z,2.56
2023-02-27T12:33:48.928Z,2.20
2023-02-27T12:36:15.411Z,2.75
2023-02-27T12:38:41.800Z,2.86
2023-02-27T12:41:08.270Z,2.83
2023-02-27T12:43:34.600Z,2.86
2023-02-27T12:46:00.986Z,3.21
2023-02-27T12:48:27.309Z,3.39
2023-02-27T12:50:54.097Z,3.13
2023-02-27T12:53:20.445Z,3.47
2023-02-27T12:55:46.755Z,3.49
2023-02-27T12:58:13.113Z,3.66
2023-02-27T13:00:39.516Z,3.16
2023-02-27T13:03:05.887Z,3.00
2023-02-27T13:05:32.523Z,2.92
2023-02-27T13:07:58.882Z,3.28
2023-02-27T13:10:25.339Z,3.41
2023-02-27T13:12:51.693Z,3.22
2023-02-27T13:15:18.036Z,3.06
2023-02-27T13:17:44.360Z,2.92
2023-02-27T13:20:10.784Z,2.92
2023-02-27T13:22:37.106Z,2.96
2023-02-27T13:25:03.502Z,2.88
2023-02-27T13:27:29.908Z,2.86
2023-02-27T13:29:56.726Z,2.88
2023-02-27T13:32:32.693Z,2.86
2023-02-27T13:35:07.838Z,2.89
2023-02-27T13:37:34.167Z,2.81
2023-02-27T13:40:01.593Z,2.99
2023-02-27T13:42:28.077Z,2.67
2023-02-27T13:44:54.453Z,2.37
2023-02-27T13:47:20.785Z,2.18
2023-02-27T13:49:47.147Z,2.31
2023-02-27T13:52:13.465Z,2.57
2023-02-27T13:54:39.791Z,2.48
2023-02-27T13:57:06.543Z,2.42
2023-02-27T13:59:32.955Z,3.02
2023-02-27T14:01:59.301Z,3.00
2023-02-27T14:04:26.316Z,3.16
2023-02-27T14:06:52.618Z,2.79
2023-02-27T14:09:18.954Z,2.80
2023-02-27T14:11:45.272Z,2.86
2023-02-27T14:14:11.675Z,2.85
2023-02-27T14:16:41.097Z,2.82
2023-02-27T14:19:08.008Z,2.89
2023-02-27T14:21:34.315Z,2.71
2023-02-27T14:24:00.726Z,2.75
2023-02-27T14:26:27.991Z,2.99
2023-02-27T14:28:55.896Z,2.64
2023-02-27T14:31:22.332Z,2.69
2023-02-27T14:33:48.712Z,2.75
2023-02-27T14:36:15.184Z,2.90
2023-02-27T14:38:41.514Z,3.00
2023-02-27T14:41:08.277Z,2.77
2023-02-27T14:43:34.639Z,3.02
2023-02-27T14:46:00.976Z,3.03
2023-02-27T14:48:27.339Z,2.86
2023-02-27T14:50:53.951Z,2.99
2023-02-27T14:53:20.373Z,3.14
2023-02-27T14:55:46.679Z,3.02
2023-02-27T14:58:13.146Z,2.90
2023-02-27T15:00:39.500Z,2.74
2023-02-27T15:03:05.945Z,2.86
2023-02-27T15:05:34.864Z,2.74
2023-02-27T15:08:01.397Z,2.74
2023-02-27T15:10:30.807Z,2.62
2023-02-27T15:12:57.115Z,2.56
2023-02-27T15:15:23.472Z,2.67
2023-02-27T15:17:49.809Z,2.38
2023-02-27T15:20:19.140Z,1.94
2023-02-27T15:22:45.445Z,2.04
2023-02-27T15:25:11.753Z,1.90
2023-02-27T15:27:38.118Z,1.81
2023-02-27T15:30:04.644Z,1.50
2023-02-27T15:32:31.023Z,1.48
2023-02-27T15:34:57.417Z,1.59
2023-02-27T15:37:23.792Z,1.63
2023-02-27T15:39:50.117Z,1.48
2023-02-27T15:42:16.424Z,1.32
2023-02-27T15:44:42.722Z,1.23
2023-02-27T15:47:09.714Z,1.36
2023-02-27T15:49:36.021Z,1.57
2023-02-27T15:52:02.386Z,1.52
2023-02-27T15:54:28.810Z,1.44
2023-02-27T15:56:55.132Z,1.06
2023-02-27T15:59:21.520Z,1.25
2023-02-27T16:01:47.856Z,1.41
2023-02-27T16:04:14.300Z,1.37
2023-02-27T16:06:40.717Z,1.44
2023-02-27T16:09:07.125Z,1.22
2023-02-27T16:11:33.460Z,1.11
2023-02-27T16:13:59.778Z,1.28
2023-02-27T16:16:26.815Z,1.41
2023-02-27T16:18:53.495Z,1.54
2023-02-27T16:21:19.884Z,1.58
2023-02-27T16:23:46.195Z,1.26
2023-02-27T16:26:12.528Z,1.27
2023-02-27T16:28:38.908Z,1.31
2023-02-27T16:31:05.234Z,1.35
2023-02-27T16:33:31.817Z,1.49
2023-02-27T16:35:58.156Z,1.46
2023-02-27T16:38:24.542Z,1.46
2023-02-27T16:40:52.248Z,1.44
2023-02-27T16:43:18.640Z,1.41
2023-02-27T16:45:44.993Z,1.26
2023-02-27T16:48:11.339Z,1.39
2023-02-27T16:50:37.650Z,1.26
2023-02-27T16:53:04.022Z,1.28
2023-02-27T16:55:32.498Z,1.22
2023-02-27T16:57:59.658Z,1.19
2023-02-27T17:00:26.088Z,1.27
2023-02-27T17:02:52.433Z,1.41
2023-02-27T17:05:18.801Z,1.43
2023-02-27T17:07:45.166Z,1.48
2023-02-27T17:10:11.465Z,1.42
2023-02-27T17:12:37.774Z,1.45
2023-02-27T17:15:04.076Z,1.22
2023-02-27T17:17:30.386Z,1.43
2023-02-27T17:19:57.221Z,1.31
2023-02-27T17:22:23.543Z,1.24
2023-02-27T17:24:49.862Z,1.19
2023-02-27T17:27:16.195Z,1.32
2023-02-27T17:29:42.502Z,1.31
2023-02-27T17:32:08.891Z,1.37
2023-02-27T17:34:35.946Z,1.15
2023-02-27T17:37:02.287Z,1.41
2023-02-27T17:39:28.605Z,1.37
2023-02-27T17:41:55.088Z,1.34
2023-02-27T17:44:21.593Z,1.36
2023-02-27T17:46:47.998Z,1.35
2023-02-27T17:49:14.380Z,1.46
2023-02-27T17:51:40.742Z,1.52
2023-02-27T17:54:07.200Z,1.14
2023-02-27T17:56:36.301Z,1.29
2023-02-27T17:59:03.000Z,1.31
2023-02-27T18:01:29.379Z,1.35
2023-02-27T18:03:55.850Z,1.29
2023-02-27T18:06:22.242Z,1.30
2023-02-27T18:08:48.654Z,1.45
2023-02-27T18:11:14.991Z,1.42
2023-02-27T18:13:41.365Z,1.44
2023-02-27T18:16:07.784Z,1.48
2023-02-27T18:18:34.127Z,1.34
2023-02-27T18:21:00.779Z,0.91
2023-02-27T18:23:27.108Z,0.80
2023-02-27T18:25:53.417Z,0.96
2023-02-27T18:28:19.734Z,0.96
2023-02-27T18:30:46.112Z,1.15
2023-02-27T18:33:12.568Z,1.06
2023-02-27T18:35:38.908Z,1.00
2023-02-27T18:38:06.009Z,1.15
2023-02-27T18:40:32.361Z,0.95
2023-02-27T18:42:58.716Z,1.07
2023-02-27T18:45:29.787Z,1.16
2023-02-27T18:47:56.159Z,1.15
2023-02-27T18:50:22.535Z,1.20
2023-02-27T18:52:48.895Z,1.19
2023-02-27T18:55:15.308Z,1.13
2023-02-27T18:57:41.630Z,1.19
2023-02-27T19:00:07.949Z,1.19
2023-02-27T19:02:37.330Z,0.99
2023-02-27T19:05:03.666Z,1.02
2023-02-27T19:07:30.012Z,1.11
2023-02-27T19:09:56.336Z,1.16
2023-02-27T19:12:22.637Z,1.22
2023-02-27T19:14:49.618Z,1.11
2023-02-27T19:17:15.938Z,1.07
2023-02-27T19:19:42.287Z,1.02
2023-02-27T19:22:08.674Z,1.12
2023-02-27T19:24:35.060Z,1.22
2023-02-27T19:27:01.373Z,1.24
2023-02-27T19:29:27.691Z,0.95
2023-02-27T19:31:54.177Z,1.10
2023-02-27T19:34:20.551Z,1.20
2023-02-27T19:36:46.994Z,1.13
2023-02-27T19:39:13.336Z,0.86
2023-02-27T19:41:39.731Z,1.03
2023-02-27T19:44:06.113Z,1.12
2023-02-27T19:46:32.962Z,1.15
2023-02-27T19:48:59.558Z,1.14
2023-02-27T19:51:26.473Z,0.80
2023-02-27T19:53:53.845Z,0.81
2023-02-27T19:56:20.184Z,0.84
2023-02-27T19:58:46.701Z,0.98
2023-02-27T20:01:13.072Z,1.00
2023-02-27T20:03:43.763Z,1.03
2023-02-27T20:06:10.794Z,0.87
2023-02-27T20:08:37.216Z,0.94
2023-02-27T20:11:05.407Z,0.74
2023-02-27T20:13:31.773Z,0.67
2023-02-27T20:15:58.098Z,0.55
2023-02-27T20:18:24.600Z,0.70
2023-02-27T20:20:50.902Z,0.84
2023-02-27T20:23:17.293Z,0.92
2023-02-27T20:25:43.668Z,0.95
2023-02-27T20:28:09.991Z,0.84
2023-02-27T20:30:39.568Z,0.87
2023-02-27T20:33:05.898Z,0.77
2023-02-27T20:35:32.250Z,0.76
2023-02-27T20:37:58.603Z,0.70
2023-02-27T20:40:28.735Z,0.79
2023-02-27T20:42:55.049Z,0.82
2023-02-27T20:45:22.198Z,0.76
2023-02-27T20:47:48.579Z,0.81
2023-02-27T20:50:14.924Z,0.87
2023-02-27T20:52:41.235Z,0.87
2023-02-27T20:55:07.532Z,0.90
2023-02-27T20:57:34.448Z,0.86
2023-02-27T21:00:00.792Z,0.83
2023-02-27T21:02:27.216Z,0.82
2023-02-27T21:04:54.226Z,0.90
2023-02-27T21:07:23.608Z,0.90
2023-02-27T21:09:50.062Z,0.93
2023-02-27T21:12:16.375Z,0.90
2023-02-27T21:14:46.678Z,0.95
2023-02-27T21:17:13.859Z,0.93
2023-02-27T21:19:40.286Z,0.93
2023-02-27T21:22:07.527Z,0.88
2023-02-27T21:24:33.972Z,0.83
2023-02-27T21:27:00.310Z,0.67
2023-02-27T21:29:26.674Z,0.80
2023-02-27T21:31:53.069Z,0.68
2023-02-27T21:34:19.432Z,0.58
2023-02-27T21:36:45.742Z,0.67
2023-02-27T21:39:12.061Z,0.82
2023-02-27T21:41:38.393Z,0.86
2023-02-27T21:44:04.700Z,0.83
2023-02-27T21:46:31.044Z,0.62
2023-02-27T21:48:57.411Z,0.81
2023-02-27T21:51:38.242Z,0.81
2023-02-27T21:54:05.482Z,0.85
2023-02-27T21:56:31.933Z,0.85
2023-02-27T21:58:58.461Z,0.83
2023-02-27T22:01:24.868Z,0.87
2023-02-27T22:03:51.195Z,0.82
2023-02-27T22:06:17.513Z,0.79
2023-02-27T22:08:43.873Z,0.75
2023-02-27T22:11:10.189Z,0.80
2023-02-27T22:13:36.625Z,0.74
2023-02-27T22:16:02.971Z,0.74
2023-02-27T22:18:29.387Z,0.82
2023-02-27T22:20:55.697Z,0.75
2023-02-27T22:23:22.214Z,0.82
2023-02-27T22:25:48.533Z,0.71
2023-02-27T22:28:14.937Z,0.63
2023-02-27T22:30:41.317Z,0.53
2023-02-27T22:33:07.843Z,0.64
2023-02-27T22:35:34.286Z,0.56
2023-02-27T22:38:00.706Z,0.60
2023-02-27T22:40:29.646Z,0.53
2023-02-27T22:42:56.718Z,0.62
2023-02-27T22:45:23.020Z,0.18
2023-02-27T22:47:49.366Z,0.42
2023-02-27T22:50:16.137Z,0.43
2023-02-27T22:52:42.487Z,0.54
2023-02-27T22:55:08.801Z,0.33
2023-02-27T22:57:35.110Z,0.53
2023-02-27T23:00:01.426Z,0.38
2023-02-27T23:02:33.377Z,0.48
2023-02-27T23:04:59.675Z,0.53
2023-02-27T23:07:25.967Z,0.37
2023-02-27T23:09:52.279Z,0.61
2023-02-27T23:12:18.594Z,0.54
2023-02-27T23:14:44.970Z,0.68
2023-02-27T23:17:11.307Z,0.52
2023-02-27T23:19:38.674Z,0.58
2023-02-27T23:22:05.312Z,0.58
2023-02-27T23:24:31.643Z,0.62
2023-02-27T23:26:58.141Z,0.66
2023-02-27T23:29:24.470Z,0.63
2023-02-27T23:31:51.035Z,0.65
2023-02-27T23:34:17.451Z,0.70
2023-02-27T23:36:43.783Z,0.66
2023-02-27T23:39:10.163Z,0.51
2023-02-27T23:41:36.477Z,0.68
2023-02-27T23:44:02.801Z,0.48
2023-02-27T23:46:30.752Z,0.49
2023-02-27T23:48:58.108Z,0.44
2023-02-27T23:51:24.413Z,0.61
2023-02-27T23:53:51.125Z,0.69
2023-02-27T23:56:17.476Z,0.55
2023-02-27T23:58:43.827Z,0.49
